sensor_id;sensor_type;location;lat;lon;timestamp;P1;durP1;ratioP1;P2;durP2;ratioP2
36547;SDS011;22551;52.206;4.856;2023-09-19T00:04:13;7.97;;;0.98;;
36547;SDS011;22551;52.206;4.856;2023-09-19T00:09:16;5.45;;;1.27;;
36547;SDS011;22551;52.206;4.856;2023-09-19T00:14:19;3.00;;;1.15;;
36547;SDS011;22551;52.206;4.856;2023-09-19T00:19:24;7.32;;;1.10;;
36547;SDS011;22551;52.206;4.856;2023-09-19T00:24:26;6.13;;;1.25;;
36547;SDS011;22551;52.206;4.856;2023-09-19T00:29:30;13.63;;;0.90;;
36547;SDS011;22551;52.206;4.856;2023-09-19T00:34:33;4.30;;;1.05;;
36547;SDS011;22551;52.206;4.856;2023-09-19T00:39:35;5.03;;;0.98;;
36547;SDS011;22551;52.206;4.856;2023-09-19T00:44:39;7.03;;;0.95;;
36547;SDS011;22551;52.206;4.856;2023-09-19T00:49:42;9.05;;;1.75;;
36547;SDS011;22551;52.206;4.856;2023-09-19T00:54:44;8.10;;;1.30;;
36547;SDS011;22551;52.206;4.856;2023-09-19T00:59:49;2.20;;;1.00;;
36547;SDS011;22551;52.206;4.856;2023-09-19T01:04:55;3.10;;;1.00;;
36547;SDS011;22551;52.206;4.856;2023-09-19T01:09:57;7.07;;;0.88;;
36547;SDS011;22551;52.206;4.856;2023-09-19T01:15:03;5.15;;;0.75;;
36547;SDS011;22551;52.206;4.856;2023-09-19T01:20:17;7.13;;;0.90;;
36547;SDS011;22551;52.206;4.856;2023-09-19T01:31:10;6.50;;;1.25;;
36547;SDS011;22551;52.206;4.856;2023-09-19T01:36:13;6.57;;;0.57;;
36547;SDS011;22551;52.206;4.856;2023-09-19T01:41:17;7.32;;;1.00;;
36547;SDS011;22551;52.206;4.856;2023-09-19T01:46:30;5.13;;;0.52;;
36547;SDS011;22551;52.206;4.856;2023-09-19T01:51:37;4.30;;;1.00;;
36547;SDS011;22551;52.206;4.856;2023-09-19T01:56:50;3.45;;;0.90;;
36547;SDS011;22551;52.206;4.856;2023-09-19T02:02:00;3.90;;;1.17;;
36547;SDS011;22551;52.206;4.856;2023-09-19T02:07:05;9.35;;;1.55;;
36547;SDS011;22551;52.206;4.856;2023-09-19T02:12:08;2.08;;;0.57;;
36547;SDS011;22551;52.206;4.856;2023-09-19T02:17:12;6.30;;;1.30;;
36547;SDS011;22551;52.206;4.856;2023-09-19T02:22:14;4.97;;;1.10;;
36547;SDS011;22551;52.206;4.856;2023-09-19T02:27:16;5.97;;;0.85;;
36547;SDS011;22551;52.206;4.856;2023-09-19T02:32:20;10.25;;;1.67;;
36547;SDS011;22551;52.206;4.856;2023-09-19T02:37:23;5.43;;;1.27;;
36547;SDS011;22551;52.206;4.856;2023-09-19T02:42:25;6.20;;;1.30;;
36547;SDS011;22551;52.206;4.856;2023-09-19T02:47:28;9.48;;;1.13;;
36547;SDS011;22551;52.206;4.856;2023-09-19T02:52:31;8.63;;;1.13;;
36547;SDS011;22551;52.206;4.856;2023-09-19T02:57:33;5.53;;;0.70;;
36547;SDS011;22551;52.206;4.856;2023-09-19T03:02:38;6.68;;;1.10;;
36547;SDS011;22551;52.206;4.856;2023-09-19T03:07:41;9.48;;;1.20;;
36547;SDS011;22551;52.206;4.856;2023-09-19T03:12:47;12.90;;;2.20;;
36547;SDS011;22551;52.206;4.856;2023-09-19T03:17:51;6.18;;;0.90;;
36547;SDS011;22551;52.206;4.856;2023-09-19T03:22:53;5.43;;;0.83;;
36547;SDS011;22551;52.206;4.856;2023-09-19T03:27:57;5.72;;;1.10;;
36547;SDS011;22551;52.206;4.856;2023-09-19T03:33:00;14.50;;;1.73;;
36547;SDS011;22551;52.206;4.856;2023-09-19T03:38:04;7.40;;;1.27;;
36547;SDS011;22551;52.206;4.856;2023-09-19T03:43:07;9.55;;;1.63;;
36547;SDS011;22551;52.206;4.856;2023-09-19T03:48:10;14.77;;;1.45;;
36547;SDS011;22551;52.206;4.856;2023-09-19T03:53:12;7.82;;;0.93;;
36547;SDS011;22551;52.206;4.856;2023-09-19T03:58:14;9.80;;;1.50;;
36547;SDS011;22551;52.206;4.856;2023-09-19T04:03:18;11.52;;;1.05;;
36547;SDS011;22551;52.206;4.856;2023-09-19T04:08:20;4.30;;;0.80;;
36547;SDS011;22551;52.206;4.856;2023-09-19T04:13:23;8.77;;;1.08;;
36547;SDS011;22551;52.206;4.856;2023-09-19T04:18:26;6.78;;;1.30;;
36547;SDS011;22551;52.206;4.856;2023-09-19T04:23:31;4.80;;;1.50;;
36547;SDS011;22551;52.206;4.856;2023-09-19T04:28:33;5.60;;;1.30;;
36547;SDS011;22551;52.206;4.856;2023-09-19T04:33:39;6.28;;;1.52;;
36547;SDS011;22551;52.206;4.856;2023-09-19T04:38:43;13.38;;;1.73;;
36547;SDS011;22551;52.206;4.856;2023-09-19T04:43:46;8.10;;;1.38;;
36547;SDS011;22551;52.206;4.856;2023-09-19T04:48:51;7.20;;;1.73;;
36547;SDS011;22551;52.206;4.856;2023-09-19T04:53:53;5.18;;;0.85;;
36547;SDS011;22551;52.206;4.856;2023-09-19T04:58:57;10.75;;;1.35;;
36547;SDS011;22551;52.206;4.856;2023-09-19T05:04:01;5.93;;;1.02;;
36547;SDS011;22551;52.206;4.856;2023-09-19T05:09:05;3.83;;;1.50;;
36547;SDS011;22551;52.206;4.856;2023-09-19T05:14:08;4.50;;;1.00;;
36547;SDS011;22551;52.206;4.856;2023-09-19T05:19:13;5.22;;;1.30;;
36547;SDS011;22551;52.206;4.856;2023-09-19T05:24:16;6.03;;;1.27;;
36547;SDS011;22551;52.206;4.856;2023-09-19T05:29:18;3.47;;;1.23;;
36547;SDS011;22551;52.206;4.856;2023-09-19T05:34:22;9.57;;;1.85;;
36547;SDS011;22551;52.206;4.856;2023-09-19T05:39:30;5.47;;;1.15;;
36547;SDS011;22551;52.206;4.856;2023-09-19T05:44:32;12.73;;;1.73;;
36547;SDS011;22551;52.206;4.856;2023-09-19T05:49:36;5.07;;;1.20;;
36547;SDS011;22551;52.206;4.856;2023-09-19T05:54:39;13.35;;;1.30;;
36547;SDS011;22551;52.206;4.856;2023-09-19T05:59:42;9.23;;;1.92;;
36547;SDS011;22551;52.206;4.856;2023-09-19T06:04:46;10.00;;;1.15;;
36547;SDS011;22551;52.206;4.856;2023-09-19T06:09:49;7.72;;;1.38;;
36547;SDS011;22551;52.206;4.856;2023-09-19T06:14:51;10.02;;;1.38;;
36547;SDS011;22551;52.206;4.856;2023-09-19T06:19:55;8.05;;;0.82;;
36547;SDS011;22551;52.206;4.856;2023-09-19T06:24:57;6.25;;;1.35;;
36547;SDS011;22551;52.206;4.856;2023-09-19T06:29:59;4.50;;;1.33;;
36547;SDS011;22551;52.206;4.856;2023-09-19T06:35:03;3.30;;;1.17;;
36547;SDS011;22551;52.206;4.856;2023-09-19T06:40:09;8.13;;;2.00;;
36547;SDS011;22551;52.206;4.856;2023-09-19T06:45:14;10.65;;;1.40;;
36547;SDS011;22551;52.206;4.856;2023-09-19T06:50:21;12.52;;;1.23;;
36547;SDS011;22551;52.206;4.856;2023-09-19T06:55:25;9.32;;;2.03;;
36547;SDS011;22551;52.206;4.856;2023-09-19T07:00:28;6.72;;;1.40;;
36547;SDS011;22551;52.206;4.856;2023-09-19T07:11:13;10.20;;;1.52;;
36547;SDS011;22551;52.206;4.856;2023-09-19T07:16:15;11.85;;;2.33;;
36547;SDS011;22551;52.206;4.856;2023-09-19T07:21:29;17.45;;;2.78;;
36547;SDS011;22551;52.206;4.856;2023-09-19T07:26:33;14.18;;;1.83;;
36547;SDS011;22551;52.206;4.856;2023-09-19T07:31:35;13.90;;;1.52;;
36547;SDS011;22551;52.206;4.856;2023-09-19T07:36:39;11.05;;;1.88;;
36547;SDS011;22551;52.206;4.856;2023-09-19T07:41:42;11.95;;;2.17;;
36547;SDS011;22551;52.206;4.856;2023-09-19T07:46:44;9.90;;;1.60;;
36547;SDS011;22551;52.206;4.856;2023-09-19T07:51:48;9.93;;;1.58;;
36547;SDS011;22551;52.206;4.856;2023-09-19T07:56:50;11.98;;;1.60;;
36547;SDS011;22551;52.206;4.856;2023-09-19T08:01:54;6.57;;;1.23;;
36547;SDS011;22551;52.206;4.856;2023-09-19T08:06:57;8.23;;;1.40;;
36547;SDS011;22551;52.206;4.856;2023-09-19T08:17:05;14.30;;;2.17;;
36547;SDS011;22551;52.206;4.856;2023-09-19T08:22:09;5.20;;;2.00;;
36547;SDS011;22551;52.206;4.856;2023-09-19T08:27:12;6.82;;;2.10;;
36547;SDS011;22551;52.206;4.856;2023-09-19T08:32:14;10.88;;;1.67;;
36547;SDS011;22551;52.206;4.856;2023-09-19T08:37:17;12.60;;;1.98;;
36547;SDS011;22551;52.206;4.856;2023-09-19T08:42:19;10.80;;;2.23;;
36547;SDS011;22551;52.206;4.856;2023-09-19T08:47:27;6.53;;;1.58;;
36547;SDS011;22551;52.206;4.856;2023-09-19T08:52:40;8.57;;;1.60;;
36547;SDS011;22551;52.206;4.856;2023-09-19T08:57:44;10.23;;;2.08;;
36547;SDS011;22551;52.206;4.856;2023-09-19T09:02:49;6.82;;;1.77;;
36547;SDS011;22551;52.206;4.856;2023-09-19T09:07:56;10.73;;;1.73;;
36547;SDS011;22551;52.206;4.856;2023-09-19T09:13:00;3.83;;;1.48;;
36547;SDS011;22551;52.206;4.856;2023-09-19T09:18:04;7.72;;;2.03;;
36547;SDS011;22551;52.206;4.856;2023-09-19T09:23:08;11.52;;;2.63;;
36547;SDS011;22551;52.206;4.856;2023-09-19T09:28:10;18.03;;;2.70;;
36547;SDS011;22551;52.206;4.856;2023-09-19T09:33:13;13.45;;;1.60;;
36547;SDS011;22551;52.206;4.856;2023-09-19T09:38:17;12.17;;;1.80;;
36547;SDS011;22551;52.206;4.856;2023-09-19T09:43:28;10.77;;;1.58;;
36547;SDS011;22551;52.206;4.856;2023-09-19T09:48:36;11.77;;;2.47;;
36547;SDS011;22551;52.206;4.856;2023-09-19T09:53:40;8.57;;;1.67;;
36547;SDS011;22551;52.206;4.856;2023-09-19T09:58:49;14.93;;;2.20;;
36547;SDS011;22551;52.206;4.856;2023-09-19T10:03:56;13.10;;;2.00;;
36547;SDS011;22551;52.206;4.856;2023-09-19T10:09:02;10.93;;;1.95;;
36547;SDS011;22551;52.206;4.856;2023-09-19T10:14:11;5.68;;;1.50;;
36547;SDS011;22551;52.206;4.856;2023-09-19T10:19:20;12.55;;;1.40;;
36547;SDS011;22551;52.206;4.856;2023-09-19T10:24:31;9.07;;;1.63;;
36547;SDS011;22551;52.206;4.856;2023-09-19T10:29:38;5.72;;;1.75;;
36547;SDS011;22551;52.206;4.856;2023-09-19T10:34:42;6.13;;;1.67;;
36547;SDS011;22551;52.206;4.856;2023-09-19T10:39:46;10.35;;;1.55;;
36547;SDS011;22551;52.206;4.856;2023-09-19T10:44:52;4.97;;;1.08;;
36547;SDS011;22551;52.206;4.856;2023-09-19T10:49:55;6.43;;;1.37;;
36547;SDS011;22551;52.206;4.856;2023-09-19T10:54:59;13.77;;;1.75;;
36547;SDS011;22551;52.206;4.856;2023-09-19T11:05:23;4.70;;;1.00;;
36547;SDS011;22551;52.206;4.856;2023-09-19T11:10:45;10.10;;;1.10;;
36547;SDS011;22551;52.206;4.856;2023-09-19T11:21:40;3.88;;;0.68;;
36547;SDS011;22551;52.206;4.856;2023-09-19T11:27:12;6.78;;;1.10;;
36547;SDS011;22551;52.206;4.856;2023-09-19T11:32:18;6.90;;;0.90;;
36547;SDS011;22551;52.206;4.856;2023-09-19T11:38:28;6.30;;;1.33;;
36547;SDS011;22551;52.206;4.856;2023-09-19T11:49:40;3.72;;;0.80;;
36547;SDS011;22551;52.206;4.856;2023-09-19T11:54:42;7.95;;;1.20;;
36547;SDS011;22551;52.206;4.856;2023-09-19T11:59:48;2.33;;;0.75;;
36547;SDS011;22551;52.206;4.856;2023-09-19T12:04:53;3.70;;;1.00;;
36547;SDS011;22551;52.206;4.856;2023-09-19T12:10:02;6.32;;;0.80;;
36547;SDS011;22551;52.206;4.856;2023-09-19T12:15:08;6.95;;;0.93;;
36547;SDS011;22551;52.206;4.856;2023-09-19T12:20:11;9.30;;;1.05;;
36547;SDS011;22551;52.206;4.856;2023-09-19T12:25:14;7.82;;;0.60;;
36547;SDS011;22551;52.206;4.856;2023-09-19T12:30:19;8.18;;;0.90;;
36547;SDS011;22551;52.206;4.856;2023-09-19T12:35:29;3.47;;;0.95;;
36547;SDS011;22551;52.206;4.856;2023-09-19T12:40:35;6.32;;;1.00;;
36547;SDS011;22551;52.206;4.856;2023-09-19T12:45:40;4.20;;;0.82;;
36547;SDS011;22551;52.206;4.856;2023-09-19T12:56:07;7.20;;;1.02;;
36547;SDS011;22551;52.206;4.856;2023-09-19T13:01:15;2.40;;;0.93;;
36547;SDS011;22551;52.206;4.856;2023-09-19T13:06:34;6.50;;;1.10;;
36547;SDS011;22551;52.206;4.856;2023-09-19T13:11:40;8.75;;;1.02;;
36547;SDS011;22551;52.206;4.856;2023-09-19T13:16:55;4.63;;;0.95;;
36547;SDS011;22551;52.206;4.856;2023-09-19T13:27:40;5.03;;;1.00;;
36547;SDS011;22551;52.206;4.856;2023-09-19T13:32:45;5.15;;;0.90;;
36547;SDS011;22551;52.206;4.856;2023-09-19T13:42:51;5.15;;;0.85;;
36547;SDS011;22551;52.206;4.856;2023-09-19T13:47:55;3.33;;;1.00;;
36547;SDS011;22551;52.206;4.856;2023-09-19T13:52:57;5.93;;;1.30;;
36547;SDS011;22551;52.206;4.856;2023-09-19T13:58:00;10.48;;;1.10;;
36547;SDS011;22551;52.206;4.856;2023-09-19T14:03:05;7.57;;;1.77;;
36547;SDS011;22551;52.206;4.856;2023-09-19T14:08:07;5.00;;;0.93;;
36547;SDS011;22551;52.206;4.856;2023-09-19T14:13:09;8.48;;;1.65;;
36547;SDS011;22551;52.206;4.856;2023-09-19T14:18:14;3.60;;;1.30;;
36547;SDS011;22551;52.206;4.856;2023-09-19T14:23:16;8.00;;;1.50;;
36547;SDS011;22551;52.206;4.856;2023-09-19T14:28:18;4.72;;;1.20;;
36547;SDS011;22551;52.206;4.856;2023-09-19T14:33:22;7.28;;;1.27;;
36547;SDS011;22551;52.206;4.856;2023-09-19T14:38:24;10.20;;;1.83;;
36547;SDS011;22551;52.206;4.856;2023-09-19T14:43:26;4.00;;;1.35;;
36547;SDS011;22551;52.206;4.856;2023-09-19T14:48:31;3.30;;;1.17;;
36547;SDS011;22551;52.206;4.856;2023-09-19T14:53:34;8.52;;;1.45;;
36547;SDS011;22551;52.206;4.856;2023-09-19T14:58:37;4.20;;;1.07;;
36547;SDS011;22551;52.206;4.856;2023-09-19T15:03:41;6.05;;;1.27;;
36547;SDS011;22551;52.206;4.856;2023-09-19T15:08:44;6.38;;;2.10;;
36547;SDS011;22551;52.206;4.856;2023-09-19T15:18:54;10.68;;;2.03;;
36547;SDS011;22551;52.206;4.856;2023-09-19T15:23:56;13.83;;;1.80;;
36547;SDS011;22551;52.206;4.856;2023-09-19T15:28:58;13.93;;;2.38;;
36547;SDS011;22551;52.206;4.856;2023-09-19T15:34:02;10.23;;;1.90;;
36547;SDS011;22551;52.206;4.856;2023-09-19T15:39:06;17.02;;;2.10;;
36547;SDS011;22551;52.206;4.856;2023-09-19T15:44:11;9.32;;;1.80;;
36547;SDS011;22551;52.206;4.856;2023-09-19T15:49:17;11.13;;;2.38;;
36547;SDS011;22551;52.206;4.856;2023-09-19T15:54:19;7.15;;;2.25;;
36547;SDS011;22551;52.206;4.856;2023-09-19T15:59:22;5.53;;;1.73;;
36547;SDS011;22551;52.206;4.856;2023-09-19T16:04:25;7.05;;;1.73;;
36547;SDS011;22551;52.206;4.856;2023-09-19T16:09:27;10.83;;;2.70;;
36547;SDS011;22551;52.206;4.856;2023-09-19T16:14:29;8.18;;;2.38;;
36547;SDS011;22551;52.206;4.856;2023-09-19T16:19:33;8.23;;;1.85;;
36547;SDS011;22551;52.206;4.856;2023-09-19T16:24:35;6.83;;;2.00;;
36547;SDS011;22551;52.206;4.856;2023-09-19T16:29:37;4.30;;;1.92;;
36547;SDS011;22551;52.206;4.856;2023-09-19T16:34:41;7.70;;;1.98;;
36547;SDS011;22551;52.206;4.856;2023-09-19T16:39:43;6.65;;;2.28;;
36547;SDS011;22551;52.206;4.856;2023-09-19T16:44:45;4.30;;;1.38;;
36547;SDS011;22551;52.206;4.856;2023-09-19T16:49:49;3.30;;;1.25;;
36547;SDS011;22551;52.206;4.856;2023-09-19T16:54:52;8.68;;;1.90;;
36547;SDS011;22551;52.206;4.856;2023-09-19T16:59:55;8.68;;;1.83;;
36547;SDS011;22551;52.206;4.856;2023-09-19T17:04:58;3.78;;;1.65;;
36547;SDS011;22551;52.206;4.856;2023-09-19T17:10:00;8.50;;;2.47;;
36547;SDS011;22551;52.206;4.856;2023-09-19T17:15:03;10.45;;;1.85;;
36547;SDS011;22551;52.206;4.856;2023-09-19T17:20:08;7.32;;;2.22;;
36547;SDS011;22551;52.206;4.856;2023-09-19T17:25:11;7.88;;;2.03;;
36547;SDS011;22551;52.206;4.856;2023-09-19T17:30:14;12.82;;;2.38;;
36547;SDS011;22551;52.206;4.856;2023-09-19T17:35:18;8.68;;;2.83;;
36547;SDS011;22551;52.206;4.856;2023-09-19T17:40:20;8.50;;;2.25;;
36547;SDS011;22551;52.206;4.856;2023-09-19T17:45:23;11.38;;;1.98;;
36547;SDS011;22551;52.206;4.856;2023-09-19T17:50:26;9.70;;;2.05;;
36547;SDS011;22551;52.206;4.856;2023-09-19T17:55:28;8.17;;;2.20;;
36547;SDS011;22551;52.206;4.856;2023-09-19T18:00:31;10.20;;;2.60;;
36547;SDS011;22551;52.206;4.856;2023-09-19T18:05:38;10.70;;;2.40;;
36547;SDS011;22551;52.206;4.856;2023-09-19T18:10:45;5.63;;;1.80;;
36547;SDS011;22551;52.206;4.856;2023-09-19T18:15:48;9.75;;;2.22;;
36547;SDS011;22551;52.206;4.856;2023-09-19T18:20:51;6.22;;;1.90;;
36547;SDS011;22551;52.206;4.856;2023-09-19T18:25:55;7.90;;;1.73;;
36547;SDS011;22551;52.206;4.856;2023-09-19T18:30:57;7.03;;;1.80;;
36547;SDS011;22551;52.206;4.856;2023-09-19T18:36:01;7.15;;;1.70;;
36547;SDS011;22551;52.206;4.856;2023-09-19T18:41:07;6.70;;;1.85;;
36547;SDS011;22551;52.206;4.856;2023-09-19T18:46:09;4.03;;;1.85;;
36547;SDS011;22551;52.206;4.856;2023-09-19T18:51:13;5.28;;;1.90;;
36547;SDS011;22551;52.206;4.856;2023-09-19T18:56:18;6.03;;;2.45;;
36547;SDS011;22551;52.206;4.856;2023-09-19T19:01:20;4.25;;;2.35;;
36547;SDS011;22551;52.206;4.856;2023-09-19T19:06:24;6.05;;;1.70;;
36547;SDS011;22551;52.206;4.856;2023-09-19T19:11:26;12.38;;;3.45;;
36547;SDS011;22551;52.206;4.856;2023-09-19T19:16:30;7.13;;;2.23;;
36547;SDS011;22551;52.206;4.856;2023-09-19T19:21:33;4.40;;;1.95;;
36547;SDS011;22551;52.206;4.856;2023-09-19T19:26:35;8.63;;;3.10;;
36547;SDS011;22551;52.206;4.856;2023-09-19T19:31:38;9.15;;;2.28;;
36547;SDS011;22551;52.206;4.856;2023-09-19T19:36:41;7.97;;;3.08;;
36547;SDS011;22551;52.206;4.856;2023-09-19T19:41:45;7.38;;;2.50;;
36547;SDS011;22551;52.206;4.856;2023-09-19T19:46:47;6.90;;;1.88;;
36547;SDS011;22551;52.206;4.856;2023-09-19T19:51:51;17.17;;;2.40;;
36547;SDS011;22551;52.206;4.856;2023-09-19T19:56:54;7.82;;;2.30;;
36547;SDS011;22551;52.206;4.856;2023-09-19T20:01:58;8.37;;;2.60;;
36547;SDS011;22551;52.206;4.856;2023-09-19T20:07:04;7.60;;;2.25;;
36547;SDS011;22551;52.206;4.856;2023-09-19T20:12:07;6.90;;;2.33;;
36547;SDS011;22551;52.206;4.856;2023-09-19T20:17:10;10.90;;;2.50;;
36547;SDS011;22551;52.206;4.856;2023-09-19T20:22:14;8.15;;;2.55;;
36547;SDS011;22551;52.206;4.856;2023-09-19T20:27:16;8.40;;;3.23;;
36547;SDS011;22551;52.206;4.856;2023-09-19T20:32:18;12.80;;;4.22;;
36547;SDS011;22551;52.206;4.856;2023-09-19T20:37:22;4.97;;;2.45;;
36547;SDS011;22551;52.206;4.856;2023-09-19T20:42:24;4.77;;;2.63;;
36547;SDS011;22551;52.206;4.856;2023-09-19T20:47:26;4.75;;;2.70;;
36547;SDS011;22551;52.206;4.856;2023-09-19T20:52:31;5.55;;;2.83;;
36547;SDS011;22551;52.206;4.856;2023-09-19T20:57:34;7.97;;;2.70;;
36547;SDS011;22551;52.206;4.856;2023-09-19T21:02:37;6.13;;;2.85;;
36547;SDS011;22551;52.206;4.856;2023-09-19T21:07:41;9.30;;;2.65;;
36547;SDS011;22551;52.206;4.856;2023-09-19T21:12:43;5.67;;;2.50;;
36547;SDS011;22551;52.206;4.856;2023-09-19T21:17:47;11.35;;;3.13;;
36547;SDS011;22551;52.206;4.856;2023-09-19T21:22:51;6.68;;;2.22;;
36547;SDS011;22551;52.206;4.856;2023-09-19T21:27:56;5.07;;;2.03;;
36547;SDS011;22551;52.206;4.856;2023-09-19T21:33:00;11.48;;;3.00;;
36547;SDS011;22551;52.206;4.856;2023-09-19T21:38:04;6.97;;;2.92;;
36547;SDS011;22551;52.206;4.856;2023-09-19T21:43:06;9.35;;;2.80;;
36547;SDS011;22551;52.206;4.856;2023-09-19T21:48:10;5.22;;;2.08;;
36547;SDS011;22551;52.206;4.856;2023-09-19T21:53:13;8.52;;;3.22;;
36547;SDS011;22551;52.206;4.856;2023-09-19T21:58:16;9.07;;;2.42;;
36547;SDS011;22551;52.206;4.856;2023-09-19T22:03:18;5.47;;;2.72;;
36547;SDS011;22551;52.206;4.856;2023-09-19T22:08:22;8.32;;;2.75;;
36547;SDS011;22551;52.206;4.856;2023-09-19T22:13:24;8.67;;;2.70;;
36547;SDS011;22551;52.206;4.856;2023-09-19T22:18:29;9.88;;;2.47;;
36547;SDS011;22551;52.206;4.856;2023-09-19T22:23:34;8.05;;;2.55;;
36547;SDS011;22551;52.206;4.856;2023-09-19T22:28:41;9.23;;;2.67;;
36547;SDS011;22551;52.206;4.856;2023-09-19T22:33:44;7.95;;;2.75;;
36547;SDS011;22551;52.206;4.856;2023-09-19T22:38:51;13.95;;;2.40;;
36547;SDS011;22551;52.206;4.856;2023-09-19T22:48:56;5.38;;;2.25;;
36547;SDS011;22551;52.206;4.856;2023-09-19T22:54:01;10.63;;;3.10;;
36547;SDS011;22551;52.206;4.856;2023-09-19T22:59:08;8.15;;;2.25;;
36547;SDS011;22551;52.206;4.856;2023-09-19T23:04:12;8.27;;;2.42;;
36547;SDS011;22551;52.206;4.856;2023-09-19T23:09:18;8.73;;;2.13;;
36547;SDS011;22551;52.206;4.856;2023-09-19T23:14:23;6.13;;;2.67;;
36547;SDS011;22551;52.206;4.856;2023-09-19T23:19:32;8.65;;;2.35;;
36547;SDS011;22551;52.206;4.856;2023-09-19T23:24:36;6.43;;;2.50;;
36547;SDS011;22551;52.206;4.856;2023-09-19T23:29:41;6.47;;;2.38;;
36547;SDS011;22551;52.206;4.856;2023-09-19T23:34:43;8.80;;;2.75;;
36547;SDS011;22551;52.206;4.856;2023-09-19T23:39:49;9.27;;;3.05;;
36547;SDS011;22551;52.206;4.856;2023-09-19T23:44:51;6.60;;;2.10;;
36547;SDS011;22551;52.206;4.856;2023-09-19T23:49:55;5.93;;;2.40;;
36547;SDS011;22551;52.206;4.856;2023-09-19T23:54:59;8.48;;;2.70;;
